Terminal Aerodrome Forecast
Issued by NWS Billings, MT

Home | Current Version | Previous Version | Text Only | Print | Product List | Glossary On
Versions: 1 2 3 4 5 6 7 8 9 10 11 12 13 14 15 16 17 18 19 20 21 22 23 24 25 26
000
FTUS45 KBYZ 212328
TAFMLS
TAF
KMLS 212328Z 2200/2224 32010KT P6SM -RA VCTS SCT040CB BKN080
     FM220400 35006KT P6SM VCSH SCT015 OVC050
     FM221200 08007KT P6SM SCT010 BKN025
     FM221800 09008KT P6SM VCSH SCT030 BKN050
     FM222200 08013KT P6SM VCSH SCT015 OVC030=

USA.gov is the U.S. government's official web portal to all federal, state and local government web resources and services.